EmailTwitter


Observations de surface / Québec / EGDM

Régions: Québec | Canada | États-Unis | Europe | France | UK | Elsewhere
Station
Affichage
Infos & localisation pour EGDM | Aide pour décoder les METARs

Observations prises le 2017-02-24 à 09H50 UTC à BOSCOMBE DOWN, UK (EGDM)

Etat du ciel: ciel variable.

Température: 6.0 Celsius

Point de rosée: 1.0 Celsius

Humidité relative: 70%

Facteur vent: 2.

Vents: Ouest-nord-ouest à 22 km/h ou 12 noeuds.

Pression au niveau moyen de la mer: 101.70 kilopascals.

Visibilité horizontale: 6.21 milles terrestres ou 9.94 kilomètres.

Observation METAR:

EGDM 240950Z 29012KT 9999 FEW022 SCT250 06/01 Q1017 BLU NOSIG=